createdAt,value
2022-09-20T00:02:05.319Z,0.60
2022-09-20T00:04:33.174Z,0.67
2022-09-20T00:07:00.875Z,0.83
2022-09-20T00:09:28.594Z,0.70
2022-09-20T00:11:57.654Z,0.40
2022-09-20T00:14:25.380Z,0.53
2022-09-20T00:16:53.132Z,0.70
2022-09-20T00:19:22.832Z,0.60
2022-09-20T00:21:50.505Z,0.70
2022-09-20T00:24:18.203Z,0.73
2022-09-20T00:26:45.888Z,0.90
2022-09-20T00:29:14.932Z,0.60
2022-09-20T00:31:43.043Z,0.70
2022-09-20T00:34:29.487Z,0.93
2022-09-20T00:36:57.115Z,0.70
2022-09-20T00:39:24.938Z,0.80
2022-09-20T00:41:52.610Z,0.60
2022-09-20T00:44:50.674Z,0.70
2022-09-20T00:47:26.140Z,0.60
2022-09-20T00:49:58.283Z,0.40
2022-09-20T00:52:27.180Z,0.80
2022-09-20T00:54:55.438Z,0.60
2022-09-20T00:57:23.421Z,0.63
2022-09-20T00:59:53.434Z,0.70
2022-09-20T01:02:25.559Z,0.60
2022-09-20T01:04:53.714Z,0.50
2022-09-20T01:07:23.390Z,0.60
2022-09-20T01:09:51.882Z,0.40
2022-09-20T01:12:21.651Z,0.40
2022-09-20T01:14:53.714Z,0.50
2022-09-20T01:18:11.052Z,0.50
2022-09-20T01:20:42.974Z,0.50
2022-09-20T01:23:24.819Z,0.50
2022-09-20T01:26:19.945Z,0.50
2022-09-20T01:28:51.092Z,0.50
2022-09-20T01:31:25.477Z,0.70
2022-09-20T01:33:55.189Z,0.50
2022-09-20T01:36:26.663Z,0.40
2022-09-20T01:39:06.925Z,0.40
2022-09-20T01:41:38.571Z,0.50
2022-09-20T01:44:14.552Z,0.67
2022-09-20T01:46:44.225Z,0.60
2022-09-20T01:49:25.139Z,0.40
2022-09-20T01:52:23.886Z,0.63
2022-09-20T01:55:26.860Z,0.50
2022-09-20T01:58:34.993Z,0.50
2022-09-20T02:01:32.901Z,0.60
2022-09-20T02:04:40.319Z,0.50
2022-09-20T02:07:34.108Z,0.50
2022-09-20T02:10:25.203Z,0.40
2022-09-20T02:12:55.970Z,0.50
2022-09-20T02:15:50.875Z,0.70
2022-09-20T02:18:39.207Z,0.50
2022-09-20T02:21:13.658Z,0.50
2022-09-20T02:23:49.620Z,0.53
2022-09-20T02:26:37.985Z,0.50
2022-09-20T02:29:16.871Z,0.40
2022-09-20T02:32:01.667Z,0.50
2022-09-20T02:34:47.884Z,0.33
2022-09-20T02:37:40.209Z,0.60
2022-09-20T02:40:21.748Z,0.60
2022-09-20T02:42:59.003Z,0.40
2022-09-20T02:45:33.988Z,0.50
2022-09-20T02:48:05.395Z,0.50
2022-09-20T02:50:42.738Z,0.40
2022-09-20T02:53:26.184Z,0.40
2022-09-20T02:56:03.329Z,0.60
2022-09-20T02:58:42.882Z,0.60
2022-09-20T03:01:27.448Z,0.60
2022-09-20T03:04:03.494Z,0.40
2022-09-20T03:06:43.574Z,0.50
2022-09-20T03:09:19.401Z,0.60
2022-09-20T03:11:57.761Z,0.50
2022-09-20T03:14:29.285Z,0.57
2022-09-20T03:17:06.992Z,0.40
2022-09-20T03:19:47.515Z,0.43
2022-09-20T03:22:27.909Z,0.60
2022-09-20T03:25:12.629Z,0.60
2022-09-20T03:27:45.363Z,0.50
2022-09-20T03:30:30.096Z,0.53
2022-09-20T03:33:07.383Z,0.60
2022-09-20T03:35:49.353Z,0.70
2022-09-20T03:38:40.471Z,0.60
2022-09-20T03:41:23.235Z,0.60
2022-09-20T03:44:06.695Z,0.60
2022-09-20T03:46:44.634Z,0.40
2022-09-20T03:49:54.483Z,0.37
2022-09-20T03:52:40.558Z,0.53
2022-09-20T03:55:45.464Z,0.53
2022-09-20T03:58:30.997Z,0.50
2022-09-20T04:01:20.363Z,0.40
2022-09-20T04:03:58.180Z,0.47
2022-09-20T04:06:45.933Z,0.53
2022-09-20T04:09:39.871Z,0.60
2022-09-20T04:12:20.396Z,0.33
2022-09-20T04:14:55.403Z,0.57
2022-09-20T04:17:37.026Z,0.40
2022-09-20T04:20:14.655Z,0.50
2022-09-20T04:22:45.645Z,0.57
2022-09-20T04:25:18.756Z,0.67
2022-09-20T04:27:51.964Z,0.67
2022-09-20T04:30:22.171Z,0.63
2022-09-20T04:32:57.423Z,0.70
2022-09-20T04:35:54.554Z,0.63
2022-09-20T04:38:22.776Z,0.60
2022-09-20T04:41:16.471Z,0.50
2022-09-20T04:44:06.457Z,0.73
2022-09-20T04:46:57.849Z,0.63
2022-09-20T04:50:15.099Z,1.07
2022-09-20T04:53:39.633Z,0.60
2022-09-20T04:56:20.727Z,0.50
2022-09-20T04:59:05.946Z,0.40
2022-09-20T05:02:03.703Z,0.63
2022-09-20T05:05:11.104Z,0.40
2022-09-20T05:08:04.780Z,0.50
2022-09-20T05:10:53.388Z,0.40
2022-09-20T05:13:35.220Z,0.50
2022-09-20T05:16:07.155Z,0.50
2022-09-20T05:19:06.700Z,0.47
2022-09-20T05:21:51.346Z,0.40
2022-09-20T05:24:38.438Z,0.50
2022-09-20T05:27:21.913Z,0.83
2022-09-20T05:29:56.903Z,0.60
2022-09-20T05:32:33.480Z,0.43
2022-09-20T05:35:06.409Z,0.50
2022-09-20T05:37:44.684Z,0.50
2022-09-20T05:40:24.016Z,0.70
2022-09-20T05:43:00.379Z,0.50
2022-09-20T05:45:48.137Z,0.53
2022-09-20T05:48:24.454Z,0.40
2022-09-20T05:51:03.802Z,0.50
2022-09-20T05:53:57.365Z,0.47
2022-09-20T05:56:36.829Z,0.90
2022-09-20T05:59:23.055Z,0.63
2022-09-20T06:02:04.504Z,0.40
2022-09-20T06:04:43.957Z,0.90
2022-09-20T06:07:21.805Z,1.00
2022-09-20T06:10:15.257Z,0.70
2022-09-20T06:12:54.938Z,0.83
2022-09-20T06:15:30.253Z,0.80
2022-09-20T06:18:05.177Z,0.80
2022-09-20T06:20:40.169Z,0.90
2022-09-20T06:23:10.974Z,1.00
2022-09-20T06:25:43.531Z,1.00
2022-09-20T06:28:17.394Z,1.23
2022-09-20T06:30:48.359Z,0.80
2022-09-20T06:33:21.176Z,1.10
2022-09-20T06:36:23.536Z,1.00
2022-09-20T06:39:21.288Z,0.70
2022-09-20T06:41:53.238Z,0.70
2022-09-20T06:44:26.581Z,0.90
2022-09-20T06:46:57.412Z,0.80
2022-09-20T06:49:30.302Z,0.80
2022-09-20T06:52:06.390Z,0.83
2022-09-20T06:54:35.012Z,0.70
2022-09-20T06:57:06.556Z,0.80
2022-09-20T06:59:34.206Z,0.90
2022-09-20T07:02:02.748Z,0.70
2022-09-20T07:04:32.860Z,0.90
2022-09-20T07:07:06.112Z,0.73
2022-09-20T07:09:36.338Z,1.10
2022-09-20T07:12:04.193Z,0.90
2022-09-20T07:14:32.093Z,0.90
2022-09-20T07:17:04.640Z,0.80
2022-09-20T07:19:32.797Z,0.90
2022-09-20T07:22:01.844Z,0.90
2022-09-20T07:24:32.266Z,1.00
2022-09-20T07:27:01.648Z,0.83
2022-09-20T07:29:30.323Z,0.87
2022-09-20T07:31:58.722Z,1.00
2022-09-20T07:34:27.226Z,0.90
2022-09-20T07:36:57.342Z,0.83
2022-09-20T07:39:26.854Z,0.77
2022-09-20T07:41:54.581Z,0.77
2022-09-20T07:44:24.833Z,0.70
2022-09-20T07:46:53.871Z,0.47
2022-09-20T07:49:23.334Z,0.77
2022-09-20T07:51:52.198Z,0.80
2022-09-20T07:54:20.491Z,0.70
2022-09-20T07:56:49.795Z,0.70
2022-09-20T07:59:17.874Z,0.60
2022-09-20T08:01:45.854Z,1.10
2022-09-20T08:04:13.654Z,0.70
2022-09-20T08:06:43.930Z,0.70
2022-09-20T08:09:13.020Z,0.70
2022-09-20T08:11:42.808Z,0.80
2022-09-20T08:14:16.021Z,1.13
2022-09-20T08:16:48.366Z,0.80
2022-09-20T08:19:18.010Z,0.80
2022-09-20T08:21:45.800Z,0.87
2022-09-20T08:24:15.034Z,0.80
2022-09-20T08:26:43.589Z,0.83
2022-09-20T08:29:22.602Z,0.80
2022-09-20T08:31:58.809Z,0.83
2022-09-20T08:34:31.768Z,0.60
2022-09-20T08:37:02.893Z,0.50
2022-09-20T08:42:39.053Z,0.40
2022-09-20T08:45:34.403Z,0.60
2022-09-20T08:48:14.407Z,0.90
2022-09-20T08:50:45.202Z,0.57
2022-09-20T08:53:21.464Z,0.90
2022-09-20T08:55:52.757Z,0.60
2022-09-20T08:58:23.303Z,0.60
2022-09-20T09:00:54.471Z,0.43
2022-09-20T09:03:23.734Z,0.70
2022-09-20T09:06:01.331Z,0.50
2022-09-20T09:08:42.820Z,0.60
2022-09-20T09:11:15.329Z,0.33
2022-09-20T09:13:53.203Z,0.53
2022-09-20T09:16:35.377Z,0.40
2022-09-20T09:19:44.055Z,0.70
2022-09-20T09:22:14.859Z,0.60
2022-09-20T09:24:42.823Z,0.47
2022-09-20T09:27:16.465Z,0.60
2022-09-20T09:29:52.160Z,0.50
2022-09-20T09:32:31.553Z,0.40
2022-09-20T09:35:24.573Z,0.63
2022-09-20T09:37:58.921Z,0.70
2022-09-20T09:40:30.760Z,1.03
2022-09-20T09:43:04.725Z,0.60
2022-09-20T09:45:44.672Z,0.60
2022-09-20T09:48:32.070Z,0.73
2022-09-20T09:51:18.761Z,0.57
2022-09-20T09:53:52.798Z,0.73
2022-09-20T09:57:01.839Z,0.50
2022-09-20T09:59:52.686Z,0.50
2022-09-20T10:02:51.767Z,0.50
2022-09-20T10:05:32.985Z,0.43
2022-09-20T10:08:23.153Z,0.50
2022-09-20T10:11:04.317Z,0.37
2022-09-20T10:13:42.480Z,0.60
2022-09-20T10:16:23.030Z,0.43
2022-09-20T10:19:03.258Z,0.60
2022-09-20T10:21:52.977Z,0.40
2022-09-20T10:24:52.181Z,0.50
2022-09-20T10:27:43.773Z,0.40
2022-09-20T10:30:22.920Z,0.70
2022-09-20T10:33:05.417Z,0.50
2022-09-20T10:36:02.726Z,0.53
2022-09-20T10:38:42.025Z,0.57
2022-09-20T10:41:55.105Z,0.50
2022-09-20T10:44:48.129Z,0.70
2022-09-20T10:47:23.272Z,0.60
2022-09-20T10:50:03.279Z,0.43
2022-09-20T10:53:12.363Z,0.40
2022-09-20T10:55:53.079Z,0.43
2022-09-20T10:58:45.296Z,0.40
2022-09-20T11:01:22.763Z,0.60
2022-09-20T11:04:33.240Z,0.30
2022-09-20T11:07:17.765Z,0.60
2022-09-20T11:09:54.959Z,0.40
2022-09-20T11:12:33.335Z,0.40
2022-09-20T11:15:13.780Z,0.80
2022-09-20T11:17:52.244Z,0.40
2022-09-20T11:20:31.033Z,0.50
2022-09-20T11:23:05.058Z,0.50
2022-09-20T11:25:44.426Z,0.50
2022-09-20T11:28:25.689Z,0.70
2022-09-20T11:31:02.562Z,0.67
2022-09-20T11:33:52.425Z,0.30
2022-09-20T11:36:31.431Z,0.57
2022-09-20T11:39:06.136Z,0.50
2022-09-20T11:41:35.249Z,0.50
2022-09-20T11:44:12.667Z,0.70
2022-09-20T11:46:53.919Z,0.57
2022-09-20T11:49:32.276Z,0.53
2022-09-20T11:52:23.127Z,0.47
2022-09-20T11:55:19.439Z,0.60
2022-09-20T11:58:02.504Z,0.40
2022-09-20T12:00:43.390Z,0.87
2022-09-20T12:03:32.180Z,0.60
2022-09-20T12:06:10.618Z,0.30
2022-09-20T12:08:52.807Z,0.40
2022-09-20T12:11:23.962Z,0.30
2022-09-20T12:14:01.113Z,0.30
2022-09-20T12:16:48.202Z,0.40
2022-09-20T12:19:59.258Z,0.40
2022-09-20T12:22:32.320Z,0.30
2022-09-20T12:25:42.325Z,0.37
2022-09-20T12:28:19.833Z,0.33
2022-09-20T12:31:32.408Z,0.43
2022-09-20T12:34:05.509Z,0.83
2022-09-20T12:36:37.872Z,0.90
2022-09-20T12:39:24.231Z,0.57
2022-09-20T12:42:02.187Z,0.60
2022-09-20T12:44:44.522Z,0.40
2022-09-20T12:47:29.834Z,0.40
2022-09-20T12:50:32.764Z,0.70
2022-09-20T12:53:11.225Z,0.40
2022-09-20T12:55:52.946Z,0.80
2022-09-20T12:58:34.492Z,0.67
2022-09-20T13:01:33.401Z,0.77
2022-09-20T13:04:42.209Z,0.40
2022-09-20T13:07:52.306Z,0.60
2022-09-20T13:10:35.933Z,0.47
2022-09-20T13:13:14.944Z,1.03
2022-09-20T13:15:54.919Z,0.80
2022-09-20T13:18:31.353Z,0.77
2022-09-20T13:21:12.568Z,1.00
2022-09-20T13:23:54.181Z,0.80
2022-09-20T13:26:32.070Z,0.60
2022-09-20T13:29:05.297Z,0.60
2022-09-20T13:31:35.656Z,0.73
2022-09-20T13:34:29.321Z,0.90
2022-09-20T13:37:03.586Z,0.50
2022-09-20T13:39:41.774Z,0.50
2022-09-20T13:42:22.460Z,0.50
2022-09-20T13:44:53.507Z,0.40
2022-09-20T13:47:29.553Z,0.50
2022-09-20T13:50:47.174Z,0.40
2022-09-20T13:53:44.887Z,0.40
2022-09-20T13:56:21.294Z,0.50
2022-09-20T13:58:55.861Z,0.20
2022-09-20T14:01:33.651Z,0.30
2022-09-20T14:04:10.480Z,0.40
2022-09-20T14:06:38.212Z,0.40
2022-09-20T14:09:12.478Z,0.30
2022-09-20T14:11:44.285Z,0.40
2022-09-20T14:14:18.595Z,0.57
2022-09-20T14:17:20.032Z,0.40
2022-09-20T14:19:54.484Z,0.47
2022-09-20T14:22:30.832Z,0.53
2022-09-20T14:25:04.219Z,0.40
2022-09-20T14:27:33.268Z,0.50
2022-09-20T14:30:04.858Z,0.30
2022-09-20T14:32:52.724Z,0.40
2022-09-20T14:35:34.329Z,0.53
2022-09-20T14:38:12.596Z,0.40
2022-09-20T14:40:52.551Z,0.30
2022-09-20T14:43:32.501Z,0.30
2022-09-20T14:46:05.456Z,0.33
2022-09-20T14:48:37.857Z,0.23
2022-09-20T14:51:25.432Z,0.47
2022-09-20T14:54:25.432Z,0.40
2022-09-20T14:57:05.201Z,0.30
2022-09-20T14:59:42.705Z,0.50
2022-09-20T15:02:15.720Z,0.30
2022-09-20T15:05:01.307Z,0.50
2022-09-20T15:07:33.032Z,0.40
2022-09-20T15:10:04.920Z,0.40
2022-09-20T15:12:33.802Z,0.33
2022-09-20T15:15:04.491Z,0.33
2022-09-20T15:17:45.305Z,0.40
2022-09-20T15:20:20.680Z,0.40
2022-09-20T15:22:53.858Z,0.30
2022-09-20T15:25:25.575Z,0.30
2022-09-20T15:27:54.092Z,0.40
2022-09-20T15:30:24.536Z,0.40
2022-09-20T15:32:54.267Z,0.43
2022-09-20T15:35:22.034Z,0.40
2022-09-20T15:37:49.782Z,0.40
2022-09-20T15:40:24.617Z,0.37
2022-09-20T15:43:01.548Z,0.30
2022-09-20T15:45:36.107Z,0.50
2022-09-20T15:48:12.217Z,0.30
2022-09-20T15:50:44.740Z,0.50
2022-09-20T15:53:14.143Z,0.40
2022-09-20T15:55:45.989Z,0.30
2022-09-20T15:58:14.977Z,0.60
2022-09-20T16:00:46.093Z,0.50
2022-09-20T16:03:14.283Z,0.40
2022-09-20T16:05:44.428Z,0.37
2022-09-20T16:08:14.623Z,0.33
2022-09-20T16:10:44.389Z,0.90
2022-09-20T16:13:15.256Z,0.47
2022-09-20T16:15:54.928Z,0.40
2022-09-20T16:18:49.271Z,0.43
2022-09-20T16:21:32.787Z,2.30
2022-09-20T16:24:05.752Z,2.00
2022-09-20T16:26:35.526Z,0.90
2022-09-20T16:29:08.260Z,0.60
2022-09-20T16:31:40.844Z,0.53
2022-09-20T16:34:20.550Z,0.90
2022-09-20T16:37:01.819Z,0.40
2022-09-20T16:39:36.834Z,0.50
2022-09-20T16:42:11.846Z,0.30
2022-09-20T16:44:44.630Z,0.40
2022-09-20T16:47:26.378Z,0.40
2022-09-20T16:49:54.767Z,0.50
2022-09-20T16:52:22.640Z,0.37
2022-09-20T16:54:54.407Z,0.60
2022-09-20T16:57:24.508Z,0.47
2022-09-20T16:59:56.026Z,0.30
2022-09-20T17:02:25.906Z,0.40
2022-09-20T17:04:53.795Z,0.90
2022-09-20T17:07:24.557Z,0.57
2022-09-20T17:10:01.977Z,0.40
2022-09-20T17:12:33.212Z,0.73
2022-09-20T17:15:05.441Z,0.50
2022-09-20T17:17:35.888Z,0.60
2022-09-20T17:20:05.567Z,0.70
2022-09-20T17:22:38.334Z,0.77
2022-09-20T17:25:08.587Z,0.90
2022-09-20T17:27:43.010Z,0.60
2022-09-20T17:30:14.118Z,0.40
2022-09-20T17:32:58.132Z,0.40
2022-09-20T17:35:25.910Z,0.70
2022-09-20T17:37:56.521Z,0.50
2022-09-20T17:40:24.550Z,0.40
2022-09-20T17:42:55.993Z,0.57
2022-09-20T17:45:26.921Z,0.50
2022-09-20T17:48:04.848Z,0.43
2022-09-20T17:50:34.780Z,0.50
2022-09-20T17:53:05.870Z,0.70
2022-09-20T17:55:34.462Z,0.60
2022-09-20T17:58:04.878Z,0.40
2022-09-20T18:00:40.144Z,0.60
2022-09-20T18:03:22.251Z,0.40
2022-09-20T18:05:54.926Z,0.60
2022-09-20T18:08:25.755Z,0.47
2022-09-20T18:11:04.802Z,0.50
2022-09-20T18:13:40.199Z,0.40
2022-09-20T18:16:10.796Z,0.60
2022-09-20T18:18:53.208Z,0.50
2022-09-20T18:21:33.854Z,0.60
2022-09-20T18:24:10.349Z,0.47
2022-09-20T18:26:44.105Z,0.50
2022-09-20T18:29:23.200Z,0.50
2022-09-20T18:31:55.600Z,0.60
2022-09-20T18:34:38.530Z,0.63
2022-09-20T18:37:14.840Z,0.60
2022-09-20T18:39:45.064Z,0.87
2022-09-20T18:42:14.648Z,0.73
2022-09-20T18:44:45.406Z,0.43
2022-09-20T18:47:14.665Z,0.50
2022-09-20T18:49:44.478Z,0.60
2022-09-20T18:52:13.107Z,0.60
2022-09-20T18:54:40.817Z,0.60
2022-09-20T18:57:11.388Z,0.87
2022-09-20T18:59:40.420Z,0.80
2022-09-20T19:02:35.998Z,1.10
2022-09-20T19:05:28.275Z,1.20
2022-09-20T19:08:12.942Z,1.40
2022-09-20T19:10:46.512Z,1.07
2022-09-20T19:13:26.793Z,0.93
2022-09-20T19:16:10.152Z,1.10
2022-09-20T19:19:07.596Z,0.80
2022-09-20T19:21:43.690Z,0.80
2022-09-20T19:24:23.343Z,0.83
2022-09-20T19:26:56.469Z,1.30
2022-09-20T19:29:29.467Z,1.10
2022-09-20T19:32:04.101Z,0.90
2022-09-20T19:34:34.385Z,1.00
2022-09-20T19:37:28.082Z,0.90
2022-09-20T19:40:29.909Z,1.10
2022-09-20T19:43:18.450Z,0.80
2022-09-20T19:45:55.514Z,1.10
2022-09-20T19:48:33.755Z,0.87
2022-09-20T19:51:09.195Z,0.83
2022-09-20T19:53:52.549Z,0.90
2022-09-20T19:56:34.880Z,1.10
2022-09-20T19:59:12.458Z,1.20
2022-09-20T20:01:44.772Z,0.90
2022-09-20T20:04:17.082Z,1.10
2022-09-20T20:07:04.067Z,0.90
2022-09-20T20:09:43.935Z,0.90
2022-09-20T20:12:26.074Z,1.20
2022-09-20T20:15:04.677Z,0.90
2022-09-20T20:17:53.689Z,1.10
2022-09-20T20:20:35.634Z,0.90
2022-09-20T20:23:36.059Z,1.00
2022-09-20T20:26:13.334Z,0.87
2022-09-20T20:28:56.567Z,1.00
2022-09-20T20:31:24.558Z,0.90
2022-09-20T20:33:55.451Z,0.77
2022-09-20T20:36:26.321Z,0.93
2022-09-20T20:38:55.100Z,0.97
2022-09-20T20:41:40.615Z,1.17
2022-09-20T20:44:14.930Z,1.00
2022-09-20T20:46:50.555Z,0.80
2022-09-20T20:49:23.214Z,0.80
2022-09-20T20:52:02.459Z,0.80
2022-09-20T20:54:30.316Z,0.67
2022-09-20T20:57:13.561Z,0.60
2022-09-20T20:59:41.529Z,0.80
2022-09-20T21:02:09.823Z,0.57
2022-09-20T21:04:39.891Z,1.00
2022-09-20T21:07:07.645Z,0.90
2022-09-20T21:09:35.946Z,1.00
2022-09-20T21:12:05.411Z,0.70
2022-09-20T21:14:33.755Z,0.90
2022-09-20T21:17:06.196Z,1.07
2022-09-20T21:19:35.142Z,0.63
2022-09-20T21:22:05.191Z,1.03
2022-09-20T21:24:34.843Z,1.00
2022-09-20T21:27:06.270Z,0.83
2022-09-20T21:29:39.722Z,0.70
2022-09-20T21:32:07.424Z,1.10
2022-09-20T21:34:36.026Z,1.00
2022-09-20T21:37:04.018Z,1.00
2022-09-20T21:39:31.688Z,1.10
2022-09-20T21:41:59.672Z,1.00
2022-09-20T21:44:28.712Z,1.10
2022-09-20T21:46:56.379Z,1.00
2022-09-20T21:49:24.035Z,1.00
2022-09-20T21:51:53.305Z,1.30
2022-09-20T21:54:21.112Z,1.47
2022-09-20T21:56:49.903Z,1.10
2022-09-20T21:59:18.519Z,1.20
2022-09-20T22:01:47.583Z,1.47
2022-09-20T22:04:15.624Z,1.20
2022-09-20T22:06:44.705Z,1.33
2022-09-20T22:09:25.008Z,1.00
2022-09-20T22:11:52.668Z,1.37
2022-09-20T22:14:20.611Z,1.13
2022-09-20T22:16:52.593Z,1.10
2022-09-20T22:19:20.680Z,1.10
2022-09-20T22:21:54.591Z,1.43
2022-09-20T22:24:37.367Z,1.17
2022-09-20T22:27:05.766Z,1.00
2022-09-20T22:29:35.492Z,0.90
2022-09-20T22:32:05.261Z,1.13
2022-09-20T22:34:34.491Z,1.27
2022-09-20T22:37:05.741Z,1.20
2022-09-20T22:39:41.470Z,0.93
2022-09-20T22:42:14.236Z,1.00
2022-09-20T22:44:45.270Z,1.00
2022-09-20T22:47:17.304Z,1.00
2022-09-20T22:49:53.776Z,1.13
2022-09-20T22:52:25.207Z,1.13
2022-09-20T22:54:55.887Z,1.10
2022-09-20T22:57:27.548Z,1.00
2022-09-20T22:59:55.543Z,1.00
2022-09-20T23:02:26.953Z,1.03
2022-09-20T23:05:02.647Z,1.00
2022-09-20T23:07:35.143Z,0.97
2022-09-20T23:10:07.328Z,1.23
2022-09-20T23:12:35.451Z,0.90
2022-09-20T23:15:03.388Z,1.10
2022-09-20T23:17:36.248Z,0.87
2022-09-20T23:20:13.262Z,1.10
2022-09-20T23:22:45.664Z,0.93
2022-09-20T23:25:23.061Z,0.90
2022-09-20T23:27:55.703Z,1.10
2022-09-20T23:30:26.043Z,1.10
2022-09-20T23:33:06.022Z,1.10
2022-09-20T23:35:36.703Z,1.00
2022-09-20T23:38:06.309Z,1.00
2022-09-20T23:40:43.661Z,1.00
2022-09-20T23:43:15.849Z,1.03
2022-09-20T23:45:46.658Z,1.10
2022-09-20T23:48:17.118Z,1.37
2022-09-20T23:50:45.745Z,1.23
2022-09-20T23:53:27.334Z,1.00
2022-09-20T23:55:55.977Z,1.37
2022-09-20T23:58:27.280Z,1.27
